Current | Forecast
Updated: 10:00 AM JST on October 18, 2017
Observed at Oshima Airport, Japan
Temperature 66°F
Humidity 60%
Dew Point 52°F
Wind ENE at 14 mph
Pressure 30.18 in (Falling)
Conditions Partly Cloudy
Visibility 6.2 miles
UV 5 out of 16
Clouds (FEW) : 3000 ft
Yesterday's Maximum 61°F
Yesterday's Minimum 59°F approx.
Yesterday's Heating Degree Days 5 approx.
Sunrise5:52 AM JST
Sunset5:06 PM JST
Moon Rise3:59 AM JST
Moon Set4:30 PM JST
Moon PhaseMoon Phase
Waning Crescent
Raw METARMETAR RJTO 180100Z 06012KT 030V090 9999 FEW030 BKN/// 19/11 Q1022


Monday
. High: 69° F.
Tuesday
. High: 69° F.
Wednesday
. High: 66° F.
Thursday
. High: 69° F.
Friday
. High: 69° F.
Saturday
. High: 71° F.
Sunday
. High: 68° F.
Monday
. High: 71° F.

Units: English | Metric

Find the Weather for any City, State or Zipcode, or Country:

U.S. State List | Severe Weather | Tropical Storms | Ski Conditions
United States | Canada | Central America | South America | Asia | Europe | Australia | Africa | Islands

Weather Underground

© Copyright 2017
The Weather Company, LLC